createdAt,value
2022-09-29T00:00:28.101Z,197.70
2022-09-29T00:01:28.132Z,182.10
2022-09-29T00:02:28.059Z,168.40
2022-09-29T00:03:28.097Z,173.90
2022-09-29T00:04:28.030Z,178.70
2022-09-29T00:05:28.051Z,193.20
2022-09-29T00:06:28.011Z,192.50
2022-09-29T00:07:27.990Z,188.60
2022-09-29T00:08:48.982Z,207.90
2022-09-29T00:09:27.959Z,193.50
2022-09-29T00:10:27.950Z,190.80
2022-09-29T00:11:27.953Z,199.40
2022-09-29T00:12:27.920Z,186.10
2022-09-29T00:13:27.934Z,196.30
2022-09-29T00:14:27.902Z,200.00
2022-09-29T00:15:27.880Z,197.20
2022-09-29T00:16:27.920Z,200.70
2022-09-29T00:17:27.852Z,196.00
2022-09-29T00:18:27.842Z,188.50
2022-09-29T00:19:48.856Z,193.20
2022-09-29T00:20:27.811Z,212.50
2022-09-29T00:21:27.831Z,207.00
2022-09-29T00:22:27.781Z,200.50
2022-09-29T00:23:27.779Z,204.50
2022-09-29T00:24:27.762Z,206.90
2022-09-29T00:25:27.753Z,212.40
2022-09-29T00:26:27.743Z,197.60
2022-09-29T00:27:27.723Z,201.10
2022-09-29T00:28:27.701Z,201.50
2022-09-29T00:29:27.704Z,215.20
2022-09-29T00:30:48.682Z,200.20
2022-09-29T00:31:27.736Z,184.40
2022-09-29T00:32:27.653Z,185.00
2022-09-29T00:33:27.633Z,197.50
2022-09-29T00:34:27.623Z,188.30
2022-09-29T00:35:27.609Z,201.00
2022-09-29T00:36:27.613Z,198.70
2022-09-29T00:37:27.591Z,195.80
2022-09-29T00:38:27.573Z,202.30
2022-09-29T00:39:27.563Z,184.40
2022-09-29T00:40:27.597Z,184.90
2022-09-29T00:41:27.546Z,174.70
2022-09-29T00:42:27.515Z,196.60
2022-09-29T00:43:27.503Z,195.00
2022-09-29T00:44:27.495Z,198.60
2022-09-29T00:45:27.514Z,201.50
2022-09-29T00:46:27.481Z,191.20
2022-09-29T00:47:27.454Z,192.10
2022-09-29T00:48:27.450Z,177.30
2022-09-29T00:49:27.421Z,200.70
2022-09-29T00:50:27.404Z,212.90
2022-09-29T00:51:27.404Z,237.60
2022-09-29T00:52:48.383Z,216.90
2022-09-29T00:53:27.393Z,189.30
2022-09-29T00:54:27.352Z,207.60
2022-09-29T00:55:27.345Z,193.80
2022-09-29T00:56:27.335Z,205.10
2022-09-29T00:57:27.320Z,226.90
2022-09-29T00:58:27.305Z,214.70
2022-09-29T00:59:27.292Z,220.20
2022-09-29T01:00:27.317Z,211.70
2022-09-29T01:01:27.276Z,202.70
2022-09-29T01:02:27.304Z,195.80
2022-09-29T01:03:27.235Z,198.20
2022-09-29T01:04:27.215Z,227.70
2022-09-29T01:05:27.205Z,201.10
2022-09-29T01:06:27.205Z,223.90
2022-09-29T01:07:27.196Z,226.00
2022-09-29T01:08:27.180Z,208.20
2022-09-29T01:09:27.155Z,203.10
2022-09-29T01:10:27.136Z,183.00
2022-09-29T01:11:27.137Z,207.50
2022-09-29T01:12:27.127Z,202.30
2022-09-29T01:13:27.096Z,178.00
2022-09-29T01:14:48.103Z,201.10
2022-09-29T01:15:27.089Z,192.60
2022-09-29T01:16:27.082Z,187.70
2022-09-29T01:17:27.067Z,198.00
2022-09-29T01:18:27.026Z,191.00
2022-09-29T01:19:27.013Z,214.90
2022-09-29T01:20:27.004Z,223.90
2022-09-29T01:21:26.987Z,212.10
2022-09-29T01:22:26.997Z,203.30
2022-09-29T01:23:26.964Z,219.60
2022-09-29T01:24:27.953Z,211.20
2022-09-29T01:25:26.927Z,192.00
2022-09-29T01:26:26.937Z,200.80
2022-09-29T01:27:26.936Z,187.60
2022-09-29T01:28:26.938Z,198.70
2022-09-29T01:29:26.887Z,183.20
2022-09-29T01:30:47.867Z,191.60
2022-09-29T01:31:26.885Z,188.90
2022-09-29T01:32:26.859Z,189.70
2022-09-29T01:33:26.828Z,193.60
2022-09-29T01:34:26.830Z,181.10
2022-09-29T01:35:26.811Z,189.20
2022-09-29T01:36:26.793Z,202.40
2022-09-29T01:37:26.797Z,181.20
2022-09-29T01:38:26.775Z,194.10
2022-09-29T01:39:26.748Z,194.40
2022-09-29T01:40:26.775Z,198.30
2022-09-29T01:41:47.901Z,197.60
2022-09-29T01:42:26.708Z,205.50
2022-09-29T01:43:26.690Z,210.40
2022-09-29T01:44:26.687Z,196.50
2022-09-29T01:45:26.711Z,219.20
2022-09-29T01:46:26.658Z,195.20
2022-09-29T01:47:26.668Z,203.20
2022-09-29T01:48:26.632Z,196.40
2022-09-29T01:49:26.616Z,201.90
2022-09-29T01:50:26.596Z,229.90
2022-09-29T01:51:26.588Z,232.80
2022-09-29T01:52:26.598Z,201.90
2022-09-29T01:53:26.577Z,209.80
2022-09-29T01:54:26.549Z,215.00
2022-09-29T01:55:26.551Z,209.10
2022-09-29T01:56:26.519Z,286.70
2022-09-29T01:57:26.529Z,221.00
2022-09-29T01:58:26.489Z,196.10
2022-09-29T01:59:26.488Z,207.20
2022-09-29T02:00:26.459Z,209.20
2022-09-29T02:01:26.450Z,194.90
2022-09-29T02:02:26.524Z,225.40
2022-09-29T02:03:47.431Z,242.60
2022-09-29T02:04:26.409Z,232.40
2022-09-29T02:05:26.402Z,217.90
2022-09-29T02:06:26.382Z,214.90
2022-09-29T02:07:26.402Z,214.60
2022-09-29T02:08:26.371Z,195.80
2022-09-29T02:09:26.341Z,215.60
2022-09-29T02:10:26.351Z,212.00
2022-09-29T02:11:26.328Z,215.50
2022-09-29T02:12:26.304Z,198.30
2022-09-29T02:13:26.290Z,246.50
2022-09-29T02:14:47.271Z,245.10
2022-09-29T02:15:26.281Z,251.60
2022-09-29T02:16:26.318Z,223.90
2022-09-29T02:17:26.240Z,204.50
2022-09-29T02:18:26.231Z,198.40
2022-09-29T02:19:26.212Z,202.00
2022-09-29T02:20:26.201Z,195.40
2022-09-29T02:21:26.182Z,204.20
2022-09-29T02:22:26.180Z,193.20
2022-09-29T02:23:26.199Z,193.10
2022-09-29T02:24:26.141Z,183.60
2022-09-29T02:25:47.123Z,200.90
2022-09-29T02:26:26.114Z,184.40
2022-09-29T02:27:26.169Z,193.10
2022-09-29T02:28:26.093Z,183.50
2022-09-29T02:29:26.071Z,202.90
2022-09-29T02:30:26.063Z,197.10
2022-09-29T02:31:26.144Z,215.10
2022-09-29T02:32:26.054Z,199.30
2022-09-29T02:33:26.040Z,202.30
2022-09-29T02:34:26.012Z,199.20
2022-09-29T02:35:25.992Z,202.60
2022-09-29T02:36:46.993Z,188.80
2022-09-29T02:37:25.973Z,194.30
2022-09-29T02:38:25.966Z,204.20
2022-09-29T02:39:25.943Z,198.50
2022-09-29T02:40:25.950Z,192.80
2022-09-29T02:41:25.913Z,203.70
2022-09-29T02:42:25.916Z,206.50
2022-09-29T02:43:25.893Z,194.50
2022-09-29T02:44:25.872Z,192.50
2022-09-29T02:45:25.912Z,191.40
2022-09-29T02:46:25.858Z,202.40
2022-09-29T02:47:46.854Z,222.80
2022-09-29T02:48:25.824Z,201.30
2022-09-29T02:49:25.807Z,206.60
2022-09-29T02:50:25.794Z,200.00
2022-09-29T02:51:25.774Z,192.50
2022-09-29T02:52:25.785Z,197.00
2022-09-29T02:53:25.753Z,188.80
2022-09-29T02:54:25.754Z,185.50
2022-09-29T02:55:25.725Z,193.30
2022-09-29T02:56:25.722Z,195.30
2022-09-29T02:57:25.704Z,193.00
2022-09-29T02:58:25.684Z,204.80
2022-09-29T02:59:25.665Z,186.40
2022-09-29T03:00:25.665Z,193.40
2022-09-29T03:01:25.686Z,190.60
2022-09-29T03:02:25.648Z,182.00
2022-09-29T03:03:25.669Z,196.60
2022-09-29T03:04:25.715Z,181.70
2022-09-29T03:05:25.585Z,195.80
2022-09-29T03:06:25.574Z,197.10
2022-09-29T03:07:25.565Z,180.40
2022-09-29T03:08:25.545Z,188.90
2022-09-29T03:09:46.536Z,176.00
2022-09-29T03:10:29.893Z,176.90
2022-09-29T03:11:25.525Z,191.20
2022-09-29T03:12:25.503Z,193.10
2022-09-29T03:13:25.485Z,208.10
2022-09-29T03:14:25.464Z,203.60
2022-09-29T03:15:25.460Z,192.00
2022-09-29T03:16:25.494Z,192.80
2022-09-29T03:17:25.426Z,191.80
2022-09-29T03:18:25.405Z,195.80
2022-09-29T03:19:25.405Z,199.10
2022-09-29T03:20:25.394Z,190.30
2022-09-29T03:21:25.376Z,205.50
2022-09-29T03:22:25.400Z,208.10
2022-09-29T03:23:25.346Z,219.30
2022-09-29T03:24:25.334Z,214.60
2022-09-29T03:25:25.319Z,200.80
2022-09-29T03:26:25.306Z,189.70
2022-09-29T03:27:25.306Z,189.60
2022-09-29T03:28:25.278Z,196.30
2022-09-29T03:29:25.301Z,211.80
2022-09-29T03:30:25.246Z,214.00
2022-09-29T03:31:25.258Z,210.30
2022-09-29T03:32:25.244Z,225.20
2022-09-29T03:33:25.216Z,237.60
2022-09-29T03:34:25.197Z,226.70
2022-09-29T03:35:25.188Z,217.60
2022-09-29T03:36:25.198Z,200.90
2022-09-29T03:37:25.166Z,196.30
2022-09-29T03:38:25.146Z,192.90
2022-09-29T03:39:25.128Z,194.40
2022-09-29T03:40:25.157Z,193.20
2022-09-29T03:41:25.107Z,206.80
2022-09-29T03:42:46.108Z,211.50
2022-09-29T03:43:25.078Z,211.50
2022-09-29T03:44:25.071Z,254.20
2022-09-29T03:45:25.121Z,202.70
2022-09-29T03:46:25.050Z,193.70
2022-09-29T03:47:25.058Z,199.60
2022-09-29T03:48:25.049Z,190.40
2022-09-29T03:49:24.990Z,213.30
2022-09-29T03:50:24.978Z,200.50
2022-09-29T03:51:24.973Z,203.50
2022-09-29T03:52:24.968Z,189.30
2022-09-29T03:53:24.978Z,204.00
2022-09-29T03:54:24.931Z,190.80
2022-09-29T03:55:24.925Z,199.20
2022-09-29T03:56:24.942Z,202.20
2022-09-29T03:57:24.917Z,184.50
2022-09-29T03:58:24.881Z,206.10
2022-09-29T03:59:24.867Z,191.10
2022-09-29T04:00:24.861Z,199.60
2022-09-29T04:01:24.914Z,583.70
2022-09-29T04:02:24.885Z,243.70
2022-09-29T04:03:24.807Z,216.10
2022-09-29T04:04:24.788Z,218.70
2022-09-29T04:05:24.790Z,199.40
2022-09-29T04:06:24.780Z,198.80
2022-09-29T04:07:24.770Z,190.50
2022-09-29T04:08:24.743Z,192.90
2022-09-29T04:09:24.720Z,208.40
2022-09-29T04:10:24.710Z,203.30
2022-09-29T04:11:24.691Z,184.70
2022-09-29T04:12:24.709Z,185.40
2022-09-29T04:13:24.670Z,183.70
2022-09-29T04:14:24.670Z,193.40
2022-09-29T04:15:24.650Z,196.70
2022-09-29T04:16:24.667Z,199.10
2022-09-29T04:17:24.642Z,186.20
2022-09-29T04:18:24.606Z,185.30
2022-09-29T04:19:24.610Z,195.70
2022-09-29T04:20:24.584Z,205.00
2022-09-29T04:21:24.562Z,347.10
2022-09-29T04:22:24.569Z,226.80
2022-09-29T04:23:24.530Z,255.90
2022-09-29T04:24:24.533Z,193.00
2022-09-29T04:25:24.516Z,199.00
2022-09-29T04:26:24.502Z,200.00
2022-09-29T04:27:24.496Z,204.40
2022-09-29T04:28:24.474Z,179.90
2022-09-29T04:29:24.451Z,205.70
2022-09-29T04:30:24.441Z,189.60
2022-09-29T04:31:45.499Z,192.00
2022-09-29T04:32:24.428Z,190.20
2022-09-29T04:33:24.403Z,184.50
2022-09-29T04:34:24.382Z,192.00
2022-09-29T04:35:24.386Z,193.00
2022-09-29T04:36:24.362Z,178.10
2022-09-29T04:37:24.370Z,181.00
2022-09-29T04:38:24.332Z,191.60
2022-09-29T04:39:24.323Z,263.90
2022-09-29T04:40:24.360Z,182.10
2022-09-29T04:41:24.292Z,223.40
2022-09-29T04:42:45.294Z,197.30
2022-09-29T04:43:24.261Z,188.70
2022-09-29T04:44:24.252Z,180.00
2022-09-29T04:45:24.240Z,178.00
2022-09-29T04:46:24.271Z,186.10
2022-09-29T04:47:24.241Z,271.90
2022-09-29T04:48:24.217Z,222.80
2022-09-29T04:49:24.183Z,191.60
2022-09-29T04:50:24.173Z,186.90
2022-09-29T04:51:24.183Z,213.70
2022-09-29T04:52:24.162Z,194.50
2022-09-29T04:53:45.135Z,195.00
2022-09-29T04:54:24.112Z,184.50
2022-09-29T04:55:24.110Z,191.90
2022-09-29T04:56:24.103Z,183.40
2022-09-29T04:57:24.102Z,191.00
2022-09-29T04:58:24.072Z,183.30
2022-09-29T04:59:24.063Z,184.60
2022-09-29T05:00:24.035Z,177.50
2022-09-29T05:01:24.063Z,184.40
2022-09-29T05:02:24.084Z,179.00
2022-09-29T05:03:24.021Z,176.30
2022-09-29T05:04:44.983Z,187.80
2022-09-29T05:05:23.968Z,177.60
2022-09-29T05:06:23.977Z,180.60
2022-09-29T05:07:23.986Z,179.40
2022-09-29T05:08:23.935Z,188.80
2022-09-29T05:09:24.974Z,179.30
2022-09-29T05:10:23.914Z,176.50
2022-09-29T05:11:23.885Z,164.00
2022-09-29T05:12:23.903Z,170.90
2022-09-29T05:13:23.864Z,171.90
2022-09-29T05:14:23.864Z,167.80
2022-09-29T05:15:26.067Z,170.40
2022-09-29T05:16:23.894Z,180.80
2022-09-29T05:17:23.826Z,175.60
2022-09-29T05:18:23.824Z,167.60
2022-09-29T05:19:23.784Z,176.10
2022-09-29T05:20:23.778Z,185.00
2022-09-29T05:21:28.006Z,179.60
2022-09-29T05:22:24.767Z,182.90
2022-09-29T05:23:23.726Z,175.10
2022-09-29T05:24:23.715Z,179.90
2022-09-29T05:25:23.705Z,183.10
2022-09-29T05:26:23.705Z,182.80
2022-09-29T05:27:23.695Z,180.80
2022-09-29T05:28:23.665Z,170.30
2022-09-29T05:29:23.645Z,173.80
2022-09-29T05:30:23.637Z,177.90
2022-09-29T05:31:23.720Z,191.80
2022-09-29T05:32:23.626Z,189.10
2022-09-29T05:33:23.597Z,178.60
2022-09-29T05:34:23.587Z,183.10
2022-09-29T05:35:23.566Z,182.00
2022-09-29T05:36:44.576Z,191.60
2022-09-29T05:37:23.545Z,193.70
2022-09-29T05:38:23.526Z,189.80
2022-09-29T05:39:23.656Z,188.40
2022-09-29T05:40:23.520Z,173.60
2022-09-29T05:41:23.511Z,182.90
2022-09-29T05:42:23.500Z,164.80
2022-09-29T05:43:23.465Z,171.30
2022-09-29T05:44:23.446Z,175.20
2022-09-29T05:45:23.438Z,183.60
2022-09-29T05:46:23.455Z,189.80
2022-09-29T05:47:44.406Z,177.80
2022-09-29T05:48:23.397Z,171.30
2022-09-29T05:49:23.391Z,173.30
2022-09-29T05:50:23.385Z,181.10
2022-09-29T05:51:23.566Z,169.90
2022-09-29T05:52:23.351Z,171.30
2022-09-29T05:53:23.336Z,177.40
2022-09-29T05:54:23.308Z,173.20
2022-09-29T05:55:23.307Z,172.80
2022-09-29T05:56:23.299Z,177.30
2022-09-29T05:57:23.281Z,174.50
2022-09-29T05:58:44.269Z,180.30
2022-09-29T05:59:23.257Z,180.40
2022-09-29T06:00:23.236Z,174.50
2022-09-29T06:01:23.312Z,179.50
2022-09-29T06:02:23.303Z,171.20
2022-09-29T06:03:23.210Z,155.60
2022-09-29T06:04:23.187Z,179.00
2022-09-29T06:05:23.159Z,169.70
2022-09-29T06:06:23.167Z,168.50
2022-09-29T06:07:23.138Z,167.40
2022-09-29T06:08:23.128Z,178.10
2022-09-29T06:09:23.109Z,179.20
2022-09-29T06:10:23.100Z,189.90
2022-09-29T06:11:23.106Z,166.80
2022-09-29T06:12:23.115Z,167.50
2022-09-29T06:13:23.050Z,174.00
2022-09-29T06:14:23.058Z,163.10
2022-09-29T06:15:23.027Z,172.80
2022-09-29T06:16:23.072Z,170.20
2022-09-29T06:17:22.999Z,162.30
2022-09-29T06:18:22.989Z,166.80
2022-09-29T06:19:22.986Z,171.70
2022-09-29T06:20:43.975Z,168.80
2022-09-29T06:21:22.979Z,159.60
2022-09-29T06:22:22.931Z,177.40
2022-09-29T06:23:22.932Z,178.40
2022-09-29T06:24:22.911Z,183.00
2022-09-29T06:25:22.897Z,201.90
2022-09-29T06:26:24.174Z,173.10
2022-09-29T06:27:22.874Z,184.90
2022-09-29T06:28:22.860Z,182.20
2022-09-29T06:29:22.851Z,185.60
2022-09-29T06:30:22.826Z,171.90
2022-09-29T06:31:43.892Z,178.50
2022-09-29T06:32:22.800Z,185.00
2022-09-29T06:33:22.822Z,177.50
2022-09-29T06:34:22.770Z,170.00
2022-09-29T06:35:22.751Z,172.00
2022-09-29T06:36:22.772Z,177.80
2022-09-29T06:37:22.747Z,183.30
2022-09-29T06:38:22.733Z,179.70
2022-09-29T06:39:22.700Z,192.10
2022-09-29T06:40:22.731Z,189.80
2022-09-29T06:41:22.702Z,184.00
2022-09-29T06:42:43.661Z,183.20
2022-09-29T06:43:22.659Z,178.20
2022-09-29T06:44:22.631Z,181.70
2022-09-29T06:45:22.662Z,169.20
2022-09-29T06:46:22.770Z,173.60
2022-09-29T06:47:22.603Z,171.40
2022-09-29T06:48:22.593Z,166.30
2022-09-29T06:49:22.592Z,159.70
2022-09-29T06:50:22.912Z,163.60
2022-09-29T06:51:23.260Z,165.80
2022-09-29T06:52:25.494Z,167.20
2022-09-29T06:53:44.545Z,155.90
2022-09-29T06:54:22.556Z,183.40
2022-09-29T06:55:22.493Z,182.90
2022-09-29T06:56:22.491Z,173.40
2022-09-29T06:57:22.475Z,166.90
2022-09-29T06:58:22.465Z,161.40
2022-09-29T06:59:22.573Z,168.30
2022-09-29T07:00:22.434Z,156.40
2022-09-29T07:01:22.487Z,150.90
2022-09-29T07:02:22.453Z,147.80
2022-09-29T07:03:22.387Z,150.40
2022-09-29T07:04:43.373Z,139.80
2022-09-29T07:05:22.361Z,137.00
2022-09-29T07:06:22.379Z,141.50
2022-09-29T07:07:22.332Z,140.10
2022-09-29T07:08:22.313Z,143.70
2022-09-29T07:09:22.468Z,141.10
2022-09-29T07:10:22.297Z,126.50
2022-09-29T07:11:22.293Z,138.20
2022-09-29T07:12:22.275Z,130.60
2022-09-29T07:13:22.254Z,148.00
2022-09-29T07:14:22.295Z,146.10
2022-09-29T07:15:43.213Z,134.70
2022-09-29T07:16:22.262Z,142.30
2022-09-29T07:17:22.193Z,139.30
2022-09-29T07:18:22.182Z,141.00
2022-09-29T07:19:22.410Z,139.60
2022-09-29T07:20:22.154Z,133.00
2022-09-29T07:21:22.376Z,159.00
2022-09-29T07:22:22.132Z,145.20
2022-09-29T07:23:22.104Z,140.20
2022-09-29T07:24:22.107Z,142.10
2022-09-29T07:25:47.014Z,131.50
2022-09-29T07:26:44.084Z,140.30
2022-09-29T07:27:22.055Z,138.90
2022-09-29T07:28:22.045Z,135.60
2022-09-29T07:29:22.189Z,149.60
2022-09-29T07:30:29.152Z,143.20
2022-09-29T07:31:23.088Z,143.10
2022-09-29T07:32:27.830Z,133.30
2022-09-29T07:33:34.393Z,155.40
2022-09-29T07:34:22.975Z,146.30
2022-09-29T07:35:21.954Z,134.10
2022-09-29T07:36:21.955Z,123.60
2022-09-29T07:37:42.976Z,137.70
2022-09-29T07:38:21.917Z,120.60
2022-09-29T07:39:21.912Z,113.00
2022-09-29T07:40:21.978Z,133.50
2022-09-29T07:41:21.916Z,130.10
2022-09-29T07:42:21.883Z,118.90
2022-09-29T07:43:21.837Z,119.60
2022-09-29T07:44:22.031Z,128.20
2022-09-29T07:45:21.809Z,122.40
2022-09-29T07:46:21.852Z,147.40
2022-09-29T07:47:21.787Z,139.50
2022-09-29T07:48:42.777Z,119.00
2022-09-29T07:49:21.866Z,120.10
2022-09-29T07:50:21.833Z,127.10
2022-09-29T07:51:21.756Z,118.30
2022-09-29T07:52:21.727Z,120.40
2022-09-29T07:53:21.721Z,114.40
2022-09-29T07:54:24.620Z,136.10
2022-09-29T07:55:22.682Z,132.40
2022-09-29T07:56:21.677Z,146.30
2022-09-29T07:57:21.673Z,160.30
2022-09-29T07:58:21.637Z,118.80
2022-09-29T07:59:21.627Z,113.00
2022-09-29T08:00:21.643Z,118.40
2022-09-29T08:01:21.642Z,109.00
2022-09-29T08:02:21.633Z,108.70
2022-09-29T08:03:21.576Z,106.90
2022-09-29T08:04:42.567Z,109.10
2022-09-29T08:05:21.560Z,111.70
2022-09-29T08:06:21.548Z,127.50
2022-09-29T08:07:21.538Z,134.50
2022-09-29T08:08:21.507Z,119.80
2022-09-29T08:09:26.498Z,118.20
2022-09-29T08:10:22.493Z,109.80
2022-09-29T08:11:30.230Z,101.40
2022-09-29T08:12:22.581Z,111.20
2022-09-29T08:13:21.443Z,110.50
2022-09-29T08:14:21.419Z,115.80
2022-09-29T08:15:21.428Z,127.20
2022-09-29T08:16:21.461Z,109.80
2022-09-29T08:17:21.380Z,98.60
2022-09-29T08:18:21.370Z,121.50
2022-09-29T08:19:21.353Z,112.40
2022-09-29T08:20:42.349Z,125.60
2022-09-29T08:21:21.361Z,101.60
2022-09-29T08:22:21.310Z,109.20
2022-09-29T08:23:21.308Z,111.90
2022-09-29T08:24:21.373Z,101.00
2022-09-29T08:25:21.282Z,109.60
2022-09-29T08:26:31.332Z,100.90
2022-09-29T08:27:22.253Z,93.50
2022-09-29T08:28:31.025Z,92.80
2022-09-29T08:29:22.230Z,91.20
2022-09-29T08:30:21.212Z,113.90
2022-09-29T08:31:42.251Z,98.80
2022-09-29T08:32:21.181Z,109.00
2022-09-29T08:33:21.166Z,107.20
2022-09-29T08:34:21.333Z,99.90
2022-09-29T08:35:21.149Z,90.60
2022-09-29T08:36:21.141Z,108.60
2022-09-29T08:37:21.112Z,88.10
2022-09-29T08:38:21.102Z,87.80
2022-09-29T08:39:21.102Z,84.20
2022-09-29T08:40:21.125Z,91.40
2022-09-29T08:41:21.081Z,88.40
2022-09-29T08:42:48.692Z,85.60
2022-09-29T08:43:31.717Z,96.50
2022-09-29T08:44:36.182Z,108.20
2022-09-29T08:45:22.011Z,86.80
2022-09-29T08:46:33.283Z,90.80
2022-09-29T08:47:22.204Z,90.90
2022-09-29T08:48:23.509Z,88.50
2022-09-29T08:49:30.877Z,93.50
2022-09-29T08:50:21.934Z,94.10
2022-09-29T08:51:21.855Z,86.30
2022-09-29T08:52:20.907Z,95.40
2022-09-29T08:53:28.303Z,96.40
2022-09-29T08:54:33.745Z,82.00
2022-09-29T08:55:22.388Z,85.30
2022-09-29T08:56:20.874Z,95.20
2022-09-29T08:57:20.896Z,91.80
2022-09-29T08:58:41.832Z,84.50
2022-09-29T08:59:20.814Z,78.50
2022-09-29T09:00:20.804Z,85.20
2022-09-29T09:01:20.860Z,87.00
2022-09-29T09:02:20.914Z,84.20
2022-09-29T09:03:20.754Z,80.70
2022-09-29T09:04:20.815Z,72.40
2022-09-29T09:05:20.732Z,73.80
2022-09-29T09:06:20.791Z,71.40
2022-09-29T09:07:20.734Z,68.90
2022-09-29T09:08:20.747Z,70.60
2022-09-29T09:09:41.683Z,75.60
2022-09-29T09:10:20.673Z,68.60
2022-09-29T09:11:20.749Z,69.70
2022-09-29T09:12:20.637Z,69.50
2022-09-29T09:13:20.633Z,71.10
2022-09-29T09:14:20.606Z,69.00
2022-09-29T09:15:20.604Z,67.90
2022-09-29T09:16:20.622Z,66.70
2022-09-29T09:17:20.575Z,64.80
2022-09-29T09:18:20.555Z,59.70
2022-09-29T09:19:20.607Z,67.20
2022-09-29T09:20:41.555Z,63.60
2022-09-29T09:21:21.940Z,59.50
2022-09-29T09:22:20.506Z,59.90
2022-09-29T09:23:20.492Z,59.10
2022-09-29T09:24:24.537Z,50.90
2022-09-29T09:25:20.458Z,52.10
2022-09-29T09:26:20.465Z,51.30
2022-09-29T09:27:20.427Z,50.80
2022-09-29T09:28:20.418Z,52.70
2022-09-29T09:29:20.398Z,60.50
2022-09-29T09:30:20.395Z,59.00
2022-09-29T09:31:41.398Z,53.00
2022-09-29T09:32:20.358Z,45.70
2022-09-29T09:33:29.337Z,59.10
2022-09-29T09:34:30.316Z,57.40
2022-09-29T09:35:23.947Z,65.60
2022-09-29T09:36:31.133Z,47.70
2022-09-29T09:37:21.300Z,47.30
2022-09-29T09:38:20.300Z,45.20
2022-09-29T09:39:20.273Z,45.60
2022-09-29T09:40:20.249Z,49.20
2022-09-29T09:41:20.259Z,46.00
2022-09-29T09:42:20.226Z,48.00
2022-09-29T09:43:20.221Z,39.90
2022-09-29T09:44:20.283Z,42.10
2022-09-29T09:45:20.188Z,40.10
2022-09-29T09:46:20.326Z,40.90
2022-09-29T09:47:41.160Z,34.50
2022-09-29T09:48:23.461Z,36.90
2022-09-29T09:49:20.193Z,37.40
2022-09-29T09:50:20.110Z,37.90
2022-09-29T09:51:20.136Z,39.10
2022-09-29T09:52:20.098Z,42.50
2022-09-29T09:53:20.079Z,32.60
2022-09-29T09:54:20.126Z,42.70
2022-09-29T09:55:20.063Z,41.00
2022-09-29T09:56:20.049Z,36.10
2022-09-29T09:57:20.026Z,27.60
2022-09-29T09:58:41.012Z,35.20
2022-09-29T09:59:20.086Z,35.20
2022-09-29T10:00:19.984Z,37.10
2022-09-29T10:01:20.067Z,41.40
2022-09-29T10:02:20.018Z,35.80
2022-09-29T10:03:19.933Z,33.00
2022-09-29T10:04:19.929Z,34.00
2022-09-29T10:05:19.917Z,29.50
2022-09-29T10:06:19.914Z,24.60
2022-09-29T10:07:19.883Z,34.70
2022-09-29T10:08:19.895Z,34.00
2022-09-29T10:09:20.092Z,29.70
2022-09-29T10:10:19.847Z,29.80
2022-09-29T10:11:19.843Z,25.60
2022-09-29T10:12:19.835Z,27.10
2022-09-29T10:13:19.812Z,30.10
2022-09-29T10:14:19.813Z,36.20
2022-09-29T10:15:19.774Z,32.40
2022-09-29T10:16:19.859Z,30.90
2022-09-29T10:17:19.767Z,32.90
2022-09-29T10:18:19.737Z,30.30
2022-09-29T10:19:19.813Z,28.20
2022-09-29T10:20:40.735Z,24.50
2022-09-29T10:21:19.705Z,27.00
2022-09-29T10:23:19.675Z,23.10
2022-09-29T10:24:19.742Z,25.10
2022-09-29T10:25:19.661Z,27.30
2022-09-29T10:26:19.648Z,30.40
2022-09-29T10:27:19.616Z,26.30
2022-09-29T10:28:19.602Z,23.30
2022-09-29T10:29:19.586Z,27.20
2022-09-29T10:30:19.699Z,26.90
2022-09-29T10:31:40.585Z,25.80
2022-09-29T10:32:19.548Z,24.40
2022-09-29T10:33:19.547Z,26.30
2022-09-29T10:34:19.674Z,21.50
2022-09-29T10:35:19.498Z,26.20
2022-09-29T10:36:19.519Z,22.30
2022-09-29T10:37:19.487Z,25.10
2022-09-29T10:38:19.488Z,21.70
2022-09-29T10:39:19.450Z,21.30
2022-09-29T10:40:19.448Z,19.80
2022-09-29T10:41:19.448Z,24.90
2022-09-29T10:42:19.415Z,26.90
2022-09-29T10:43:19.388Z,24.80
2022-09-29T10:44:19.464Z,22.40
2022-09-29T10:45:19.376Z,25.90
2022-09-29T10:46:19.438Z,24.50
2022-09-29T10:47:19.340Z,21.30
2022-09-29T10:48:19.331Z,18.50
2022-09-29T10:49:19.309Z,20.80
2022-09-29T10:50:19.300Z,22.10
2022-09-29T10:51:19.300Z,21.80
2022-09-29T10:52:19.270Z,23.80
2022-09-29T10:53:19.544Z,23.30
2022-09-29T10:54:19.260Z,20.30
2022-09-29T10:55:19.252Z,22.40
2022-09-29T10:56:19.229Z,20.00
2022-09-29T10:57:19.202Z,22.90
2022-09-29T10:58:37.496Z,21.20
2022-09-29T10:59:20.181Z,21.60
2022-09-29T11:00:19.191Z,16.30
2022-09-29T11:01:19.170Z,15.80
2022-09-29T11:02:19.162Z,16.00
2022-09-29T11:03:19.132Z,16.30
2022-09-29T11:04:19.124Z,19.30
2022-09-29T11:05:19.148Z,17.60
2022-09-29T11:06:19.083Z,13.10
2022-09-29T11:07:19.073Z,14.40
2022-09-29T11:08:19.071Z,11.70
2022-09-29T11:09:40.088Z,12.70
2022-09-29T11:10:19.044Z,12.70
2022-09-29T11:11:19.024Z,10.60
2022-09-29T11:12:19.031Z,10.20
2022-09-29T11:13:19.003Z,7.80
2022-09-29T11:14:18.995Z,8.40
2022-09-29T11:15:18.977Z,7.20
2022-09-29T11:16:18.983Z,11.60
2022-09-29T11:17:18.948Z,8.50
2022-09-29T11:18:18.928Z,10.60
2022-09-29T11:19:19.038Z,10.30
2022-09-29T11:20:39.945Z,14.30
2022-09-29T11:21:18.901Z,10.20
2022-09-29T11:22:18.909Z,10.10
2022-09-29T11:23:18.857Z,11.70
2022-09-29T11:24:18.867Z,11.80
2022-09-29T11:25:18.861Z,7.40
2022-09-29T11:26:18.820Z,8.30
2022-09-29T11:27:18.810Z,12.70
2022-09-29T11:28:18.790Z,10.20
2022-09-29T11:29:18.771Z,10.80
2022-09-29T11:30:19.142Z,11.30
2022-09-29T11:31:39.761Z,11.80
2022-09-29T11:32:18.743Z,9.00
2022-09-29T11:33:18.722Z,7.50
2022-09-29T11:34:18.713Z,8.30
2022-09-29T11:35:18.712Z,8.40
2022-09-29T11:36:18.690Z,7.80
2022-09-29T11:37:18.673Z,9.10
2022-09-29T11:38:18.654Z,8.30
2022-09-29T11:39:18.648Z,10.60
2022-09-29T11:40:18.654Z,9.50
2022-09-29T11:41:18.615Z,7.20
2022-09-29T11:42:39.604Z,9.80
2022-09-29T11:43:18.585Z,9.40
2022-09-29T11:44:18.577Z,8.90
2022-09-29T11:46:18.599Z,9.70
2022-09-29T11:47:18.532Z,9.70
2022-09-29T11:48:18.556Z,9.60
2022-09-29T11:49:18.567Z,7.00
2022-09-29T11:50:18.517Z,10.70
2022-09-29T11:51:18.484Z,8.80
2022-09-29T11:52:18.466Z,10.70
2022-09-29T11:53:39.457Z,9.80
2022-09-29T11:54:18.438Z,7.40
2022-09-29T11:55:18.467Z,9.70
2022-09-29T11:56:18.409Z,9.60
2022-09-29T11:57:19.556Z,7.60
2022-09-29T11:58:18.389Z,8.50
2022-09-29T11:59:18.396Z,9.60
2022-09-29T12:00:18.367Z,9.20
2022-09-29T12:01:18.349Z,8.60
2022-09-29T12:02:18.407Z,7.30
2022-09-29T12:03:18.397Z,9.60
2022-09-29T12:04:39.320Z,6.90
2022-09-29T12:05:18.290Z,10.50
2022-09-29T12:06:18.278Z,9.60
2022-09-29T12:07:18.260Z,6.40
2022-09-29T12:08:18.272Z,10.10
2022-09-29T12:09:18.423Z,8.80
2022-09-29T12:10:22.302Z,8.90
2022-09-29T12:11:44.419Z,7.90
2022-09-29T12:12:23.620Z,9.80
2022-09-29T12:13:19.182Z,10.20
2022-09-29T12:14:18.219Z,6.70
2022-09-29T12:15:18.202Z,8.70
2022-09-29T12:16:18.199Z,5.60
2022-09-29T12:17:18.125Z,7.40
2022-09-29T12:18:18.125Z,7.80
2022-09-29T12:19:18.180Z,6.70
2022-09-29T12:20:18.104Z,7.40
2022-09-29T12:21:18.104Z,5.90
2022-09-29T12:22:18.067Z,6.40
2022-09-29T12:23:18.057Z,5.90
2022-09-29T12:24:18.134Z,4.80
2022-09-29T12:25:18.018Z,5.80
2022-09-29T12:26:18.018Z,4.70
2022-09-29T12:27:17.989Z,4.20
2022-09-29T12:28:17.987Z,6.80
2022-09-29T12:29:17.990Z,5.00
2022-09-29T12:30:17.971Z,4.80
2022-09-29T12:31:38.970Z,7.30
2022-09-29T12:32:19.403Z,6.40
2022-09-29T12:33:17.921Z,6.80
2022-09-29T12:34:17.972Z,7.70
2022-09-29T12:35:17.906Z,5.50
2022-09-29T12:36:17.883Z,5.80
2022-09-29T12:37:17.871Z,9.00
2022-09-29T12:38:17.856Z,5.30
2022-09-29T12:39:17.861Z,5.70
2022-09-29T12:40:17.837Z,7.60